createdAt,value
2022-08-20T15:25:27.346Z,74928.75
2022-08-20T15:54:55.160Z,75013.84
2022-08-20T16:05:23.162Z,75071.97
2022-08-20T16:09:40.050Z,75084.41
2022-08-20T16:13:48.028Z,75101.00
2022-08-20T16:17:58.098Z,75115.53
2022-08-20T16:22:03.462Z,75117.63
2022-08-20T16:26:18.716Z,75123.84
2022-08-20T16:30:31.217Z,75121.78
2022-08-20T16:34:38.553Z,75152.91
2022-08-20T16:38:45.911Z,75157.06
2022-08-20T16:42:50.142Z,75173.66
2022-08-20T16:46:55.931Z,75179.88
2022-08-20T16:51:01.315Z,75181.97
2022-08-20T16:55:04.700Z,75177.81
2022-08-20T16:59:08.871Z,75190.25
2022-08-20T17:03:21.493Z,75202.72
2022-08-20T17:07:46.046Z,75211.03
2022-08-20T17:11:49.348Z,75213.09
2022-08-20T17:15:54.903Z,75204.78
2022-08-20T17:19:58.910Z,75213.09
2022-08-20T17:24:03.815Z,75238.00
2022-08-20T17:28:15.253Z,75252.53
2022-08-20T17:32:20.622Z,75269.13
2022-08-20T17:36:22.450Z,75287.81
2022-08-20T17:40:34.498Z,75296.13
2022-08-20T17:44:42.141Z,75294.06
2022-08-20T17:48:45.689Z,75352.16
2022-08-20T17:52:50.698Z,75366.69
2022-08-20T17:56:55.753Z,75362.53
2022-08-20T18:00:59.762Z,75408.22
2022-08-20T18:05:14.262Z,75418.59
2022-08-20T18:09:26.285Z,75466.34
2022-08-20T18:13:44.888Z,75480.88
2022-08-20T18:18:06.884Z,75501.63
2022-08-20T18:22:11.614Z,75534.84
2022-08-20T18:26:19.071Z,75543.13
2022-08-20T18:30:23.190Z,75572.19
2022-08-20T18:34:38.957Z,75578.44
2022-08-20T18:38:41.898Z,75580.50
2022-08-20T18:42:45.689Z,75609.56
2022-08-20T18:46:53.205Z,75617.88
2022-08-20T18:50:57.539Z,75632.41
2022-08-20T18:55:01.258Z,75649.00
2022-08-20T18:59:13.362Z,75671.84
2022-08-20T19:03:23.384Z,75676.00
2022-08-20T19:07:43.298Z,75676.00
2022-08-20T19:12:04.084Z,75700.91
2022-08-20T19:21:16.037Z,75725.81
2022-08-20T19:25:25.926Z,75729.97
2022-08-20T19:29:30.550Z,75738.28
2022-08-20T19:33:32.730Z,75750.72
2022-08-20T19:37:51.166Z,75759.03
2022-08-20T19:41:58.490Z,75765.25
2022-08-20T19:46:01.428Z,75771.47
2022-08-20T19:50:19.158Z,75783.94
2022-08-20T19:54:22.791Z,75798.47
2022-08-20T19:58:26.742Z,75804.69
2022-08-20T20:02:32.054Z,75829.59
2022-08-20T20:06:41.306Z,75821.31
2022-08-20T20:10:43.726Z,75827.53
2022-08-20T20:14:47.571Z,75835.84
2022-08-20T20:19:09.098Z,75808.84
2022-08-20T20:23:14.372Z,75821.31
2022-08-20T20:27:21.766Z,75819.22
2022-08-20T20:31:28.587Z,75833.75
2022-08-20T20:35:32.534Z,75850.38
2022-08-20T20:39:36.898Z,75842.06
2022-08-20T20:43:42.939Z,75837.91
2022-08-20T20:47:51.948Z,75813.00
2022-08-20T20:51:57.367Z,75819.22
2022-08-20T20:55:58.878Z,75842.06
2022-08-20T21:00:00.423Z,75840.00
2022-08-20T21:04:03.729Z,75831.69
2022-08-20T21:08:08.684Z,75837.91
2022-08-20T21:12:11.520Z,75860.75
2022-08-20T21:16:13.052Z,75858.66
2022-08-20T21:20:15.985Z,75885.66
2022-08-20T21:24:17.596Z,75904.34
2022-08-20T21:28:20.088Z,75896.03
2022-08-20T21:32:21.939Z,75904.34
2022-08-20T21:36:25.271Z,75908.50
2022-08-20T21:40:28.394Z,75904.34
2022-08-20T21:44:32.023Z,75920.94
2022-08-20T21:48:33.719Z,75908.50
2022-08-20T21:52:36.931Z,75918.88
2022-08-20T21:56:45.518Z,75950.00
2022-08-20T22:00:53.881Z,75947.94
2022-08-20T22:04:55.650Z,75954.16
2022-08-20T22:08:58.622Z,75966.63
2022-08-20T22:13:00.158Z,75968.69
2022-08-20T22:17:01.965Z,75962.47
2022-08-20T22:21:07.938Z,75974.94
2022-08-20T22:25:12.262Z,75977.00
2022-08-20T22:29:15.261Z,75968.69
2022-08-20T22:33:21.513Z,75987.38
2022-08-20T22:37:24.622Z,76018.53
2022-08-20T22:41:28.009Z,76020.59
2022-08-20T22:45:29.813Z,76016.44
2022-08-20T22:49:36.285Z,76020.59
2022-08-20T22:53:37.889Z,76045.50
2022-08-20T22:57:40.997Z,76045.50
2022-08-20T23:01:44.340Z,76047.59
2022-08-20T23:05:47.257Z,76093.25
2022-08-20T23:09:48.901Z,76095.34
2022-08-20T23:13:51.907Z,76066.28
2022-08-20T23:17:59.817Z,76074.56
2022-08-20T23:22:01.484Z,76074.56
2022-08-20T23:26:03.231Z,76109.88
2022-08-20T23:30:07.481Z,76084.97
2022-08-20T23:34:09.482Z,76097.41
2022-08-20T23:38:11.701Z,76101.56
2022-08-20T23:42:14.145Z,76076.66
2022-08-20T23:46:18.664Z,76124.41
2022-08-20T23:50:24.095Z,76136.84
2022-08-20T23:54:26.154Z,76145.16
2022-08-20T23:58:27.721Z,76151.41
